Aérodrome :
LOGIN :

S'inscrire | Disclaimer

   EN    FR    IT 

 










Légende :    VFR   VFR Marginal   IFR   IFR Intensif   IFR Très Intensif
Visi : 
Plafond : 
>= 8 km
>= 3000ft
5 à 8 km
1000 à 3000 ft
1500m à 5 km
500 à 1000 ft
800 à 1500m
200 à 500 ft
< 800m
< 200 ft
Symboles :   Orages  Brouillard  Fortes neiges  Fortes précipitations  Vent > 20 kt
SIGMETs :   Divers  Orages  Givrage  Turbulence  Onde Orograph.  Cendres Volcan.






- Altitude de l'aérodrome : 32 ft
- Code IATA : LKZ


EGUL - RAF Lakenheath

DERNIER METAR :
  • 171956Z 00000KT 9999 SCT044 11/07 A2975 RMK SLPNO RVRNO WND DATA ESTMD ALSTG/SLP ESTMD $

METARs EXPIRÉS :
  • 171856Z 00000KT 9999 FEW042 SCT060 BKN075 12/08 A2975 RMK SLPNO RVRNO WND DATA ESTMD ALSTG/SLP ESTMD $
  • 171756Z VRB04KT 9000 -RA FEW035 BKN050 13/07 A2974 RMK SLPNO RVRNO WND DATA ESTMD ALSTG/SLP ESTMD $

TAF TAF EGUL
Valide du 17 à 12h jusqu'au 18 à 18h UTC


171200Z 1712/1818 32009KT 9000 -SHRA BKN025 QNH2965INS
TEMPO 1713/1718 30010G15KT 8000 -TSRA BKN020CB
BECMG 1720/1721 28006KT 9999 NSW SCT010 SCT030 QNH2970INS
BECMG 1721/1722 28006KT 5000 BR BKN008 QNH2977INS
BECMG 1804/1805 27006KT 6000 BR BKN010 QNH2988INS
BECMG 1808/1809 27006KT 8000 BR BKN030 QNH2991INS
TEMPO 1812/1818 8000 -TSRA BKN020CB TX13/1712Z TN05/1803Z



MET'MAP, la Météo Aéronautique d'un coup d'oeil ! - Copyright ORBIFLY Décembre 2007 - Disclaimer

ORBIFLY MET'MAP TEAM :

Programmation & Développement : Alexandra Zaïnal
Sur une idée originale de : Baudouin d'Aumeries
Assistance à la programmation : Marc-Olivier Méhu
Soutien technique & logistique : Manuel Goepfert

Contact : metmap@orbifly.com




SOURCES & CREDITS :

   NOAA